createdAt,value
2022-09-03T00:00:08.064Z,45
2022-09-03T00:01:08.471Z,45
2022-09-03T00:02:08.946Z,45
2022-09-03T00:03:09.394Z,45
2022-09-03T00:04:09.865Z,44
2022-09-03T00:05:10.651Z,44
2022-09-03T00:06:11.057Z,44
2022-09-03T00:07:11.425Z,44
2022-09-03T00:08:11.814Z,44
2022-09-03T00:09:12.540Z,44
2022-09-03T00:10:13.240Z,44
2022-09-03T00:11:16.668Z,44
2022-09-03T00:12:18.320Z,44
2022-09-03T00:13:18.721Z,44
2022-09-03T00:14:19.123Z,44
2022-09-03T00:15:19.801Z,44
2022-09-03T00:16:20.265Z,44
2022-09-03T00:17:20.682Z,44
2022-09-03T00:18:21.071Z,44
2022-09-03T00:19:22.147Z,44
2022-09-03T00:20:22.837Z,44
2022-09-03T00:21:23.202Z,44
2022-09-03T00:22:23.602Z,44
2022-09-03T00:23:24.001Z,44
2022-09-03T00:24:24.788Z,44
2022-09-03T00:25:25.496Z,44
2022-09-03T00:26:27.156Z,44
2022-09-03T00:27:27.517Z,44
2022-09-03T00:28:27.916Z,44
2022-09-03T00:29:28.313Z,44
2022-09-03T00:30:29.111Z,44
2022-09-03T00:31:29.505Z,44
2022-09-03T00:32:29.901Z,44
2022-09-03T00:33:30.297Z,44
2022-09-03T00:34:30.699Z,44
2022-09-03T00:35:31.521Z,44
2022-09-03T00:36:31.922Z,44
2022-09-03T00:37:32.811Z,44
2022-09-03T00:38:37.510Z,44
2022-09-03T00:39:38.305Z,44
2022-09-03T00:40:39.187Z,44
2022-09-03T00:41:39.594Z,44
2022-09-03T00:42:39.994Z,44
2022-09-03T00:43:40.360Z,44
2022-09-03T00:44:40.755Z,44
2022-09-03T00:45:41.576Z,44
2022-09-03T00:46:42.099Z,44
2022-09-03T00:47:42.534Z,44
2022-09-03T00:48:43.158Z,44
2022-09-03T00:49:43.934Z,44
2022-09-03T00:50:44.732Z,44
2022-09-03T00:51:45.144Z,44
2022-09-03T00:52:45.540Z,45
2022-09-03T00:53:45.907Z,45
2022-09-03T00:54:46.617Z,45
2022-09-03T00:55:47.299Z,45
2022-09-03T00:56:47.693Z,45
2022-09-03T00:57:48.078Z,45
2022-09-03T00:58:48.491Z,45
2022-09-03T00:59:48.884Z,45
2022-09-03T01:00:49.661Z,45
2022-09-03T01:01:50.137Z,45
2022-09-03T01:02:50.654Z,45
2022-09-03T01:03:51.082Z,45
2022-09-03T01:04:51.500Z,45
2022-09-03T01:05:52.251Z,45
2022-09-03T01:06:52.661Z,45
2022-09-03T01:07:53.061Z,45
2022-09-03T01:08:53.456Z,45
2022-09-03T01:09:54.258Z,45
2022-09-03T01:10:55.052Z,45
2022-09-03T01:11:55.443Z,45
2022-09-03T01:12:55.856Z,45
2022-09-03T01:13:56.255Z,45
2022-09-03T01:14:56.655Z,45
2022-09-03T01:15:57.485Z,45
2022-09-03T01:16:57.909Z,45
2022-09-03T01:17:58.306Z,45
2022-09-03T01:18:58.704Z,45
2022-09-03T01:19:59.091Z,45
2022-09-03T01:20:59.901Z,45
2022-09-03T01:22:00.292Z,45
2022-09-03T01:23:00.674Z,45
2022-09-03T01:24:01.054Z,45
2022-09-03T01:25:01.803Z,45
2022-09-03T01:26:02.616Z,45
2022-09-03T01:27:03.011Z,45
2022-09-03T01:28:03.400Z,45
2022-09-03T01:29:03.794Z,45
2022-09-03T01:30:04.255Z,45
2022-09-03T01:31:05.184Z,45
2022-09-03T01:32:05.620Z,45
2022-09-03T01:33:06.021Z,45
2022-09-03T01:34:06.381Z,45
2022-09-03T01:35:06.781Z,45
2022-09-03T01:36:07.590Z,45
2022-09-03T01:37:07.986Z,45
2022-09-03T01:38:08.383Z,45
2022-09-03T01:39:08.760Z,45
2022-09-03T01:40:09.486Z,45
2022-09-03T01:41:10.187Z,45
2022-09-03T01:42:10.553Z,45
2022-09-03T01:43:10.916Z,45
2022-09-03T01:44:11.280Z,45
2022-09-03T01:45:11.649Z,45
2022-09-03T01:46:12.475Z,45
2022-09-03T01:47:13.189Z,45
2022-09-03T01:48:13.695Z,45
2022-09-03T01:49:14.088Z,45
2022-09-03T01:50:14.482Z,45
2022-09-03T01:51:15.291Z,45
2022-09-03T01:52:15.694Z,45
2022-09-03T01:53:16.100Z,45
2022-09-03T01:54:17.991Z,45
2022-09-03T01:55:22.209Z,45
2022-09-03T01:56:22.959Z,45
2022-09-03T01:57:35.461Z,45
2022-09-03T01:58:37.636Z,45
2022-09-03T01:59:38.041Z,45
2022-09-03T02:00:38.440Z,45
2022-09-03T02:01:39.268Z,45
2022-09-03T02:02:39.739Z,45
2022-09-03T02:03:41.123Z,45
2022-09-03T02:04:41.678Z,45
2022-09-03T02:05:42.034Z,45
2022-09-03T02:06:42.779Z,45
2022-09-03T02:07:43.168Z,45
2022-09-03T02:08:43.552Z,45
2022-09-03T02:09:43.947Z,45
2022-09-03T02:10:45.534Z,45
2022-09-03T02:11:46.224Z,45
2022-09-03T02:12:46.590Z,45
2022-09-03T02:13:46.994Z,45
2022-09-03T02:14:47.362Z,45
2022-09-03T02:15:47.815Z,45
2022-09-03T02:16:48.638Z,46
2022-09-03T02:17:49.004Z,46
2022-09-03T02:18:49.376Z,46
2022-09-03T02:19:49.765Z,46
2022-09-03T02:20:50.148Z,46
2022-09-03T02:21:50.937Z,46
2022-09-03T02:22:51.291Z,46
2022-09-03T02:23:51.648Z,46
2022-09-03T02:24:52.058Z,46
2022-09-03T02:25:52.857Z,46
2022-09-03T02:26:53.567Z,46
2022-09-03T02:27:53.968Z,46
2022-09-03T02:28:54.327Z,46
2022-09-03T02:29:54.722Z,46
2022-09-03T02:30:55.171Z,46
2022-09-03T02:31:55.871Z,46
2022-09-03T02:32:56.247Z,46
2022-09-03T02:33:56.614Z,46
2022-09-03T02:34:57.012Z,46
2022-09-03T02:35:57.417Z,46
2022-09-03T02:36:58.219Z,46
2022-09-03T02:37:58.616Z,46
2022-09-03T02:38:59.008Z,46
2022-09-03T02:39:59.500Z,46
2022-09-03T02:41:00.287Z,47
2022-09-03T02:42:01.094Z,47
2022-09-03T02:43:01.509Z,47
2022-09-03T02:44:01.878Z,47
2022-09-03T02:45:02.262Z,47
2022-09-03T02:46:02.745Z,47
2022-09-03T02:47:03.587Z,47
2022-09-03T02:48:03.986Z,47
2022-09-03T02:49:04.394Z,47
2022-09-03T02:50:04.829Z,47
2022-09-03T02:51:13.738Z,47
2022-09-03T02:52:15.317Z,47
2022-09-03T02:53:15.688Z,47
2022-09-03T02:54:20.718Z,47
2022-09-03T02:55:21.493Z,47
2022-09-03T02:56:22.204Z,47
2022-09-03T02:57:27.439Z,47
2022-09-03T02:58:27.968Z,47
2022-09-03T02:59:28.363Z,47
2022-09-03T03:00:28.738Z,47
2022-09-03T03:01:29.171Z,47
2022-09-03T03:02:33.378Z,47
2022-09-03T03:03:33.762Z,47
2022-09-03T03:04:34.136Z,47
2022-09-03T03:05:34.523Z,47
2022-09-03T03:06:34.929Z,47
2022-09-03T03:07:35.718Z,47
2022-09-03T03:08:36.105Z,47
2022-09-03T03:09:36.513Z,47
2022-09-03T03:10:36.879Z,47
2022-09-03T03:11:37.608Z,47
2022-09-03T03:12:38.294Z,47
2022-09-03T03:13:38.697Z,47
2022-09-03T03:14:39.075Z,47
2022-09-03T03:15:39.462Z,47
2022-09-03T03:16:39.912Z,47
2022-09-03T03:17:40.663Z,47
2022-09-03T03:18:41.053Z,48
2022-09-03T03:19:41.461Z,48
2022-09-03T03:20:41.841Z,48
2022-09-03T03:21:42.209Z,48
2022-09-03T03:22:43.000Z,48
2022-09-03T03:23:43.403Z,48
2022-09-03T03:24:43.801Z,48
2022-09-03T03:25:44.190Z,48
2022-09-03T03:26:44.964Z,48
2022-09-03T03:27:45.652Z,48
2022-09-03T03:28:46.051Z,48
2022-09-03T03:29:46.414Z,48
2022-09-03T03:30:46.835Z,48
2022-09-03T03:31:47.246Z,48
2022-09-03T03:32:48.019Z,48
2022-09-03T03:33:48.409Z,48
2022-09-03T03:34:48.795Z,48
2022-09-03T03:35:49.159Z,48
2022-09-03T03:36:49.542Z,48
2022-09-03T03:37:50.363Z,48
2022-09-03T03:38:50.753Z,48
2022-09-03T03:39:51.156Z,48
2022-09-03T03:40:51.553Z,48
2022-09-03T03:41:52.356Z,48
2022-09-03T03:42:53.066Z,48
2022-09-03T03:43:53.477Z,48
2022-09-03T03:44:53.887Z,48
2022-09-03T03:45:54.327Z,48
2022-09-03T03:46:54.758Z,48
2022-09-03T03:47:55.475Z,48
2022-09-03T03:48:55.857Z,48
2022-09-03T03:49:56.267Z,48
2022-09-03T03:50:56.660Z,48
2022-09-03T03:51:57.065Z,48
2022-09-03T03:52:57.839Z,48
2022-09-03T03:54:00.157Z,48
2022-09-03T03:55:03.578Z,48
2022-09-03T03:56:03.937Z,48
2022-09-03T03:57:04.723Z,48
2022-09-03T03:58:05.444Z,48
2022-09-03T03:59:05.860Z,49
2022-09-03T04:00:06.219Z,49
2022-09-03T04:01:06.739Z,49
2022-09-03T04:02:07.212Z,49
2022-09-03T04:03:07.967Z,49
2022-09-03T04:04:08.369Z,49
2022-09-03T04:05:08.729Z,49
2022-09-03T04:06:09.836Z,49
2022-09-03T04:07:10.254Z,49
2022-09-03T04:08:10.954Z,49
2022-09-03T04:09:11.359Z,49
2022-09-03T04:10:11.717Z,49
2022-09-03T04:11:12.086Z,49
2022-09-03T04:12:12.788Z,49
2022-09-03T04:13:13.563Z,49
2022-09-03T04:14:13.947Z,49
2022-09-03T04:15:14.336Z,49
2022-09-03T04:16:14.765Z,49
2022-09-03T04:17:15.199Z,49
2022-09-03T04:18:15.973Z,49
2022-09-03T04:19:16.393Z,49
2022-09-03T04:20:16.778Z,49
2022-09-03T04:21:17.168Z,49
2022-09-03T04:22:17.559Z,49
2022-09-03T04:23:18.237Z,49
2022-09-03T04:24:18.631Z,49
2022-09-03T04:25:18.995Z,49
2022-09-03T04:26:19.384Z,49
2022-09-03T04:27:20.162Z,49
2022-09-03T04:28:20.883Z,49
2022-09-03T04:29:21.426Z,49
2022-09-03T04:30:21.798Z,49
2022-09-03T04:31:22.263Z,49
2022-09-03T04:32:22.666Z,49
2022-09-03T04:33:23.378Z,49
2022-09-03T04:34:23.785Z,49
2022-09-03T04:35:24.179Z,49
2022-09-03T04:36:24.562Z,49
2022-09-03T04:37:24.952Z,49
2022-09-03T04:38:25.730Z,49
2022-09-03T04:39:26.231Z,49
2022-09-03T04:40:26.685Z,49
2022-09-03T04:41:27.085Z,49
2022-09-03T04:42:27.487Z,49
2022-09-03T04:43:28.264Z,49
2022-09-03T04:44:28.623Z,49
2022-09-03T04:45:29.066Z,49
2022-09-03T04:46:29.601Z,49
2022-09-03T04:47:30.008Z,49
2022-09-03T04:48:30.778Z,49
2022-09-03T04:49:31.189Z,49
2022-09-03T04:50:31.556Z,49
2022-09-03T04:51:32.003Z,49
2022-09-03T04:52:32.374Z,49
2022-09-03T04:53:33.151Z,49
2022-09-03T04:54:33.528Z,49
2022-09-03T04:55:33.933Z,49
2022-09-03T04:56:34.338Z,49
2022-09-03T04:57:35.020Z,50
2022-09-03T04:58:35.762Z,50
2022-09-03T04:59:38.695Z,50
2022-09-03T05:00:39.089Z,50
2022-09-03T05:01:39.578Z,50
2022-09-03T05:02:40.072Z,50
2022-09-03T05:03:40.967Z,50
2022-09-03T05:04:41.379Z,50
2022-09-03T05:05:41.800Z,50
2022-09-03T05:06:42.175Z,50
2022-09-03T05:07:42.564Z,50
2022-09-03T05:08:43.361Z,50
2022-09-03T05:09:43.859Z,50
2022-09-03T05:10:44.252Z,50
2022-09-03T05:11:44.610Z,50
2022-09-03T05:12:45.407Z,50
2022-09-03T05:13:46.111Z,50
2022-09-03T05:14:46.508Z,50
2022-09-03T05:15:46.890Z,50
2022-09-03T05:16:53.148Z,50
2022-09-03T05:17:53.780Z,50
2022-09-03T05:18:54.548Z,50
2022-09-03T05:19:54.927Z,50
2022-09-03T05:20:55.312Z,50
2022-09-03T05:21:55.720Z,50
2022-09-03T05:22:56.125Z,50
2022-09-03T05:23:56.922Z,50
2022-09-03T05:24:57.318Z,50
2022-09-03T05:25:57.702Z,50
2022-09-03T05:26:58.065Z,50
2022-09-03T05:27:58.874Z,50
2022-09-03T05:28:59.585Z,50
2022-09-03T05:29:59.991Z,50
2022-09-03T05:31:00.397Z,50
2022-09-03T05:32:00.866Z,50
2022-09-03T05:33:01.272Z,50
2022-09-03T05:34:01.962Z,50
2022-09-03T05:35:02.340Z,50
2022-09-03T05:36:02.703Z,50
2022-09-03T05:37:03.086Z,50
2022-09-03T05:38:03.446Z,50
2022-09-03T05:39:04.252Z,50
2022-09-03T05:40:04.629Z,50
2022-09-03T05:41:04.993Z,50
2022-09-03T05:42:05.413Z,50
2022-09-03T05:43:08.637Z,50
2022-09-03T05:44:09.456Z,50
2022-09-03T05:45:09.864Z,50
2022-09-03T05:46:10.265Z,50
2022-09-03T05:47:10.657Z,50
2022-09-03T05:48:11.862Z,50
2022-09-03T05:49:12.651Z,50
2022-09-03T05:50:13.028Z,50
2022-09-03T05:51:13.419Z,50
2022-09-03T05:52:13.775Z,50
2022-09-03T05:53:14.176Z,50
2022-09-03T05:54:14.940Z,50
2022-09-03T05:55:15.371Z,50
2022-09-03T05:56:16.139Z,50
2022-09-03T05:57:16.516Z,50
2022-09-03T05:58:17.268Z,50
2022-09-03T05:59:18.068Z,50
2022-09-03T06:00:18.471Z,50
2022-09-03T06:01:18.865Z,50
2022-09-03T06:02:19.829Z,50
2022-09-03T06:03:20.498Z,48
2022-09-03T06:04:21.375Z,48
2022-09-03T06:05:21.775Z,48
2022-09-03T06:06:22.144Z,48
2022-09-03T06:07:22.548Z,48
2022-09-03T06:08:22.929Z,48
2022-09-03T06:09:23.869Z,48
2022-09-03T06:10:27.010Z,48
2022-09-03T06:11:31.186Z,48
2022-09-03T06:12:31.558Z,48
2022-09-03T06:13:32.320Z,48
2022-09-03T06:14:33.128Z,48
2022-09-03T06:15:33.507Z,48
2022-09-03T06:16:33.942Z,48
2022-09-03T06:17:34.379Z,48
2022-09-03T06:18:34.747Z,48
2022-09-03T06:19:35.437Z,46
2022-09-03T06:20:37.325Z,46
2022-09-03T06:21:37.873Z,46
2022-09-03T06:22:38.282Z,46
2022-09-03T06:23:38.704Z,46
2022-09-03T06:24:41.768Z,46
2022-09-03T06:25:42.153Z,46
2022-09-03T06:26:42.844Z,45
2022-09-03T06:27:43.724Z,45
2022-09-03T06:28:44.546Z,45
2022-09-03T06:29:45.323Z,45
2022-09-03T06:30:45.708Z,45
2022-09-03T06:31:46.921Z,45
2022-09-03T06:32:47.332Z,45
2022-09-03T06:33:47.737Z,45
2022-09-03T06:34:48.565Z,44
2022-09-03T06:35:48.975Z,44
2022-09-03T06:36:49.349Z,44
2022-09-03T06:37:49.731Z,44
2022-09-03T06:38:50.118Z,44
2022-09-03T06:39:50.806Z,44
2022-09-03T06:40:51.272Z,44
2022-09-03T06:41:51.670Z,44
2022-09-03T06:42:52.066Z,44
2022-09-03T06:43:52.749Z,44
2022-09-03T06:44:53.553Z,44
2022-09-03T06:45:53.957Z,44
2022-09-03T06:46:54.407Z,43
2022-09-03T06:47:54.804Z,43
2022-09-03T06:48:55.202Z,43
2022-09-03T06:49:55.937Z,43
2022-09-03T06:50:56.328Z,43
2022-09-03T06:51:56.722Z,43
2022-09-03T06:52:57.126Z,43
2022-09-03T06:53:57.507Z,43
2022-09-03T06:54:58.288Z,43
2022-09-03T06:55:58.664Z,43
2022-09-03T06:56:59.059Z,43
2022-09-03T06:57:59.718Z,43
2022-09-03T06:59:00.815Z,43
2022-09-03T07:00:01.508Z,43
2022-09-03T07:01:02.103Z,43
2022-09-03T07:02:02.711Z,42
2022-09-03T07:03:03.210Z,42
2022-09-03T07:04:03.567Z,42
2022-09-03T07:05:04.224Z,42
2022-09-03T07:06:05.051Z,42
2022-09-03T07:07:05.447Z,42
2022-09-03T07:08:05.838Z,42
2022-09-03T07:09:06.263Z,42
2022-09-03T07:10:06.997Z,42
2022-09-03T07:11:07.406Z,42
2022-09-03T07:12:07.794Z,41
2022-09-03T07:13:08.195Z,41
2022-09-03T07:14:08.903Z,41
2022-09-03T07:15:09.718Z,41
2022-09-03T07:16:10.133Z,41
2022-09-03T07:17:10.575Z,41
2022-09-03T07:18:10.970Z,41
2022-09-03T07:19:11.370Z,41
2022-09-03T07:20:12.186Z,41
2022-09-03T07:21:12.590Z,41
2022-09-03T07:22:13.381Z,41
2022-09-03T07:23:13.782Z,41
2022-09-03T07:24:14.171Z,40
2022-09-03T07:25:14.899Z,40
2022-09-03T07:26:15.273Z,40
2022-09-03T07:27:15.632Z,40
2022-09-03T07:28:16.119Z,40
2022-09-03T07:29:17.455Z,40
2022-09-03T07:30:18.138Z,40
2022-09-03T07:31:18.544Z,40
2022-09-03T07:32:18.940Z,40
2022-09-03T07:33:19.300Z,40
2022-09-03T07:34:19.693Z,40
2022-09-03T07:35:20.363Z,40
2022-09-03T07:36:22.158Z,40
2022-09-03T07:37:22.524Z,40
2022-09-03T07:38:23.169Z,40
2022-09-03T07:39:23.676Z,40
2022-09-03T07:40:24.506Z,40
2022-09-03T07:41:28.275Z,40
2022-09-03T07:42:29.444Z,40
2022-09-03T07:43:29.850Z,40
2022-09-03T07:44:30.550Z,40
2022-09-03T07:45:31.365Z,40
2022-09-03T07:46:31.809Z,40
2022-09-03T07:47:32.213Z,40
2022-09-03T07:48:37.182Z,40
2022-09-03T07:49:37.936Z,40
2022-09-03T07:50:38.632Z,40
2022-09-03T07:51:39.041Z,40
2022-09-03T07:52:39.437Z,40
2022-09-03T07:53:39.799Z,40
2022-09-03T07:54:40.186Z,40
2022-09-03T07:55:40.995Z,40
2022-09-03T07:56:41.392Z,40
2022-09-03T07:57:41.786Z,40
2022-09-03T07:58:42.206Z,40
2022-09-03T07:59:42.863Z,40
2022-09-03T08:00:43.593Z,40
2022-09-03T08:01:44.054Z,40
2022-09-03T08:02:46.450Z,40
2022-09-03T08:03:47.079Z,40
2022-09-03T08:04:47.518Z,40
2022-09-03T08:05:48.319Z,40
2022-09-03T08:06:48.678Z,40
2022-09-03T08:07:49.044Z,38
2022-09-03T08:08:49.444Z,38
2022-09-03T08:09:49.827Z,38
2022-09-03T08:10:50.564Z,38
2022-09-03T08:11:50.951Z,38
2022-09-03T08:12:51.310Z,38
2022-09-03T08:13:51.674Z,38
2022-09-03T08:14:52.462Z,38
2022-09-03T08:15:53.231Z,38
2022-09-03T08:16:53.652Z,38
2022-09-03T08:17:54.016Z,36
2022-09-03T08:19:03.767Z,36
2022-09-03T08:20:04.153Z,36
2022-09-03T08:21:04.942Z,36
2022-09-03T08:22:05.326Z,36
2022-09-03T08:23:05.721Z,36
2022-09-03T08:24:06.128Z,36
2022-09-03T08:25:06.521Z,36
2022-09-03T08:26:10.514Z,37
2022-09-03T08:27:10.885Z,37
2022-09-03T08:28:11.280Z,37
2022-09-03T08:29:11.688Z,37
2022-09-03T08:30:12.497Z,36
2022-09-03T08:31:13.279Z,36
2022-09-03T08:32:14.336Z,36
2022-09-03T08:33:14.734Z,36
2022-09-03T08:34:15.091Z,36
2022-09-03T08:35:15.451Z,36
2022-09-03T08:36:16.228Z,36
2022-09-03T08:37:16.606Z,36
2022-09-03T08:38:17.027Z,36
2022-09-03T08:39:17.561Z,36
2022-09-03T08:40:17.971Z,35
2022-09-03T08:41:18.648Z,35
2022-09-03T08:42:19.031Z,35
2022-09-03T08:43:19.414Z,35
2022-09-03T08:44:19.840Z,35
2022-09-03T08:45:20.509Z,35
2022-09-03T08:46:21.295Z,35
2022-09-03T08:47:21.731Z,35
2022-09-03T08:48:25.740Z,35
2022-09-03T08:49:26.490Z,36
2022-09-03T08:50:26.881Z,36
2022-09-03T08:51:27.648Z,36
2022-09-03T08:52:28.053Z,36
2022-09-03T08:53:28.430Z,35
2022-09-03T08:54:29.409Z,35
2022-09-03T08:55:29.781Z,35
2022-09-03T08:56:30.570Z,35
2022-09-03T08:57:30.957Z,35
2022-09-03T08:58:31.321Z,35
2022-09-03T08:59:32.771Z,35
2022-09-03T09:00:33.934Z,35
2022-09-03T09:01:34.773Z,35
2022-09-03T09:02:35.292Z,35
2022-09-03T09:03:35.862Z,35
2022-09-03T09:04:36.232Z,35
2022-09-03T09:05:36.632Z,35
2022-09-03T09:06:37.637Z,35
2022-09-03T09:07:38.003Z,35
2022-09-03T09:08:38.409Z,35
2022-09-03T09:09:38.805Z,35
2022-09-03T09:10:39.187Z,35
2022-09-03T09:11:40.038Z,35
2022-09-03T09:12:46.331Z,35
2022-09-03T09:13:47.258Z,35
2022-09-03T09:14:47.643Z,35
2022-09-03T09:15:48.460Z,35
2022-09-03T09:16:50.449Z,35
2022-09-03T09:17:50.855Z,35
2022-09-03T09:18:51.246Z,35
2022-09-03T09:19:51.617Z,35
2022-09-03T09:20:52.009Z,35
2022-09-03T09:21:52.818Z,35
2022-09-03T09:22:53.173Z,35
2022-09-03T09:23:53.578Z,34
2022-09-03T09:24:53.935Z,34
2022-09-03T09:25:54.293Z,35
2022-09-03T09:26:55.021Z,35
2022-09-03T09:27:55.383Z,35
2022-09-03T09:28:55.780Z,35
2022-09-03T09:29:56.168Z,35
2022-09-03T09:30:56.896Z,35
2022-09-03T09:31:57.732Z,35
2022-09-03T09:32:58.123Z,35
2022-09-03T09:34:00.451Z,35
2022-09-03T09:35:00.939Z,35
2022-09-03T09:36:01.342Z,36
2022-09-03T09:37:02.053Z,36
2022-09-03T09:38:02.451Z,36
2022-09-03T09:39:02.840Z,36
2022-09-03T09:40:03.261Z,36
2022-09-03T09:41:03.695Z,36
2022-09-03T09:42:04.467Z,36
2022-09-03T09:43:04.870Z,36
2022-09-03T09:44:05.239Z,36
2022-09-03T09:45:05.629Z,36
2022-09-03T09:46:06.384Z,36
2022-09-03T09:47:07.115Z,36
2022-09-03T09:48:07.512Z,36
2022-09-03T09:49:07.913Z,36
2022-09-03T09:50:08.276Z,37
2022-09-03T09:51:20.626Z,37
2022-09-03T09:52:21.004Z,37
2022-09-03T09:53:21.415Z,37
2022-09-03T09:54:21.816Z,37
2022-09-03T09:55:22.175Z,37
2022-09-03T09:56:22.570Z,37
2022-09-03T09:57:22.972Z,38
2022-09-03T09:58:23.385Z,38
2022-09-03T09:59:23.798Z,37
2022-09-03T10:00:24.180Z,37
2022-09-03T10:01:24.919Z,37
2022-09-03T10:02:25.466Z,37
2022-09-03T10:03:25.908Z,37
2022-09-03T10:04:29.881Z,37
2022-09-03T10:05:33.320Z,37
2022-09-03T10:06:33.680Z,37
2022-09-03T10:07:34.465Z,37
2022-09-03T10:08:34.853Z,37
2022-09-03T10:09:35.243Z,36
2022-09-03T10:10:35.628Z,36
2022-09-03T10:11:36.393Z,36
2022-09-03T10:12:36.797Z,37
2022-09-03T10:13:37.168Z,37
2022-09-03T10:14:37.539Z,37
2022-09-03T10:15:37.989Z,37
2022-09-03T10:16:38.826Z,37
2022-09-03T10:17:39.213Z,37
2022-09-03T10:18:39.753Z,37
2022-09-03T10:19:40.115Z,37
2022-09-03T10:20:40.492Z,37
2022-09-03T10:21:41.217Z,37
2022-09-03T10:22:42.373Z,37
2022-09-03T10:23:57.055Z,37
2022-09-03T10:24:57.453Z,37
2022-09-03T10:25:57.843Z,37
2022-09-03T10:26:58.656Z,37
2022-09-03T10:27:59.928Z,37
2022-09-03T10:29:00.414Z,37
2022-09-03T10:30:00.789Z,37
2022-09-03T10:31:01.307Z,37
2022-09-03T10:32:02.136Z,37
2022-09-03T10:33:02.533Z,37
2022-09-03T10:34:02.940Z,37
2022-09-03T10:35:03.339Z,37
2022-09-03T10:36:03.712Z,37
2022-09-03T10:37:04.490Z,37
2022-09-03T10:38:04.855Z,37
2022-09-03T10:39:05.244Z,37
2022-09-03T10:40:05.694Z,37
2022-09-03T10:41:06.121Z,37
2022-09-03T10:42:06.924Z,37
2022-09-03T10:43:07.326Z,37
2022-09-03T10:44:07.711Z,37
2022-09-03T10:45:08.112Z,37
2022-09-03T10:46:08.522Z,37
2022-09-03T10:47:09.352Z,37
2022-09-03T10:48:09.743Z,37
2022-09-03T10:49:10.107Z,37
2022-09-03T10:50:10.476Z,37
2022-09-03T10:51:10.838Z,37
2022-09-03T10:52:11.551Z,37
2022-09-03T10:53:11.914Z,37
2022-09-03T10:54:12.316Z,38
2022-09-03T10:55:12.729Z,38
2022-09-03T10:56:13.100Z,38
2022-09-03T10:57:13.864Z,38
2022-09-03T10:58:14.254Z,38
2022-09-03T10:59:14.647Z,38
2022-09-03T11:00:15.029Z,38
2022-09-03T11:01:15.426Z,38
2022-09-03T11:02:16.288Z,38
2022-09-03T11:03:20.985Z,38
2022-09-03T11:04:21.708Z,38
2022-09-03T11:05:22.069Z,38
2022-09-03T11:06:22.461Z,38
2022-09-03T11:07:22.876Z,38
2022-09-03T11:08:23.287Z,38
2022-09-03T11:09:23.689Z,38
2022-09-03T11:10:24.059Z,38
2022-09-03T11:11:31.805Z,38
2022-09-03T11:12:32.216Z,38
2022-09-03T11:13:32.614Z,38
2022-09-03T11:14:33.021Z,38
2022-09-03T11:15:33.470Z,38
2022-09-03T11:16:34.224Z,38
2022-09-03T11:17:34.888Z,37
2022-09-03T11:18:35.293Z,37
2022-09-03T11:19:35.647Z,37
2022-09-03T11:20:36.007Z,37
2022-09-03T11:21:36.728Z,37
2022-09-03T11:22:37.103Z,36
2022-09-03T11:23:37.503Z,36
2022-09-03T11:24:37.864Z,36
2022-09-03T11:25:38.257Z,37
2022-09-03T11:26:39.038Z,37
2022-09-03T11:27:39.407Z,37
2022-09-03T11:28:39.784Z,36
2022-09-03T11:29:40.142Z,36
2022-09-03T11:30:40.582Z,36
2022-09-03T11:31:41.458Z,36
2022-09-03T11:32:42.195Z,37
2022-09-03T11:33:42.563Z,37
2022-09-03T11:34:42.961Z,37
2022-09-03T11:35:43.320Z,36
2022-09-03T11:36:47.876Z,36
2022-09-03T11:37:48.547Z,36
2022-09-03T11:38:48.930Z,36
2022-09-03T11:39:49.415Z,36
2022-09-03T11:40:49.828Z,36
2022-09-03T11:41:50.595Z,36
2022-09-03T11:42:50.953Z,37
2022-09-03T11:43:51.348Z,37
2022-09-03T11:44:52.101Z,37
2022-09-03T11:45:52.606Z,37
2022-09-03T11:46:53.451Z,37
2022-09-03T11:47:54.217Z,37
2022-09-03T11:48:54.612Z,37
2022-09-03T11:49:54.978Z,37
2022-09-03T11:50:55.378Z,36
2022-09-03T11:51:56.106Z,36
2022-09-03T11:52:56.508Z,36
2022-09-03T11:53:57.310Z,36
2022-09-03T11:54:57.945Z,36
2022-09-03T11:55:58.759Z,38
2022-09-03T11:57:00.534Z,38
2022-09-03T11:58:00.915Z,37
2022-09-03T11:59:01.325Z,37
2022-09-03T12:00:01.687Z,37
2022-09-03T12:01:02.064Z,38
2022-09-03T12:02:02.927Z,38
2022-09-03T12:03:03.786Z,39
2022-09-03T12:04:04.195Z,39
2022-09-03T12:05:04.632Z,38
2022-09-03T12:06:05.083Z,38
2022-09-03T12:07:05.901Z,38
2022-09-03T12:08:08.893Z,38
2022-09-03T12:09:09.533Z,38
2022-09-03T12:10:09.931Z,38
2022-09-03T12:11:10.299Z,38
2022-09-03T12:12:11.106Z,38
2022-09-03T12:13:11.498Z,38
2022-09-03T12:14:13.939Z,38
2022-09-03T12:15:14.469Z,38
2022-09-03T12:16:14.894Z,38
2022-09-03T12:17:15.777Z,38
2022-09-03T12:18:16.493Z,38
2022-09-03T12:19:16.894Z,37
2022-09-03T12:20:17.303Z,37
2022-09-03T12:21:17.702Z,38
2022-09-03T12:22:18.391Z,38
2022-09-03T12:23:18.915Z,38
2022-09-03T12:24:19.343Z,37
2022-09-03T12:25:19.696Z,37
2022-09-03T12:26:20.056Z,37
2022-09-03T12:27:20.443Z,37
2022-09-03T12:28:20.809Z,37
2022-09-03T12:29:21.207Z,37
2022-09-03T12:30:22.080Z,37
2022-09-03T12:31:22.476Z,38
2022-09-03T12:32:22.887Z,38
2022-09-03T12:33:25.125Z,38
2022-09-03T12:34:25.516Z,39
2022-09-03T12:36:56.706Z,38
2022-09-03T12:38:06.373Z,38
2022-09-03T12:39:12.051Z,38
2022-09-03T12:40:13.389Z,38
2022-09-03T12:41:23.344Z,38
2022-09-03T12:42:28.194Z,38
2022-09-03T12:43:42.445Z,38
2022-09-03T12:44:44.613Z,38
2022-09-03T12:46:10.670Z,38
2022-09-03T12:47:37.280Z,38
2022-09-03T12:48:39.707Z,38
2022-09-03T12:49:41.070Z,38
2022-09-03T12:50:42.596Z,38
2022-09-03T12:51:53.638Z,38
2022-09-03T12:52:55.363Z,38
2022-09-03T12:53:55.733Z,38
2022-09-03T12:54:56.131Z,38
2022-09-03T12:55:56.520Z,37
2022-09-03T12:56:57.226Z,37
2022-09-03T12:58:02.202Z,37
2022-09-03T12:59:03.507Z,38
2022-09-03T13:00:03.926Z,38
2022-09-03T13:01:04.427Z,37
2022-09-03T13:02:05.758Z,38
2022-09-03T13:03:06.224Z,37
2022-09-03T13:04:06.924Z,37
2022-09-03T13:05:08.245Z,38
2022-09-03T13:06:08.614Z,38
2022-09-03T13:07:09.420Z,38
2022-09-03T13:08:09.787Z,38
2022-09-03T13:09:10.191Z,38
2022-09-03T13:10:10.595Z,38
2022-09-03T13:11:10.988Z,38
2022-09-03T13:12:15.169Z,38
2022-09-03T13:13:15.531Z,38
2022-09-03T13:14:15.950Z,38
2022-09-03T13:15:16.374Z,38
2022-09-03T13:16:16.812Z,38
2022-09-03T13:17:17.596Z,38
2022-09-03T13:18:17.955Z,38
2022-09-03T13:19:19.152Z,38
2022-09-03T13:20:19.541Z,38
2022-09-03T13:21:19.911Z,36
2022-09-03T13:22:20.503Z,36
2022-09-03T13:23:20.895Z,36
2022-09-03T13:24:21.253Z,36
2022-09-03T13:25:21.663Z,36
2022-09-03T13:26:22.060Z,36
2022-09-03T13:27:22.452Z,36
2022-09-03T13:28:22.810Z,36
2022-09-03T13:29:23.168Z,37
2022-09-03T13:30:23.682Z,37
2022-09-03T13:31:24.172Z,36
2022-09-03T13:32:24.596Z,36
2022-09-03T13:33:26.543Z,36
2022-09-03T13:34:30.313Z,36
2022-09-03T13:35:30.735Z,36
2022-09-03T13:36:31.100Z,36
2022-09-03T13:37:31.804Z,36
2022-09-03T13:38:36.969Z,36
2022-09-03T13:39:37.804Z,37
2022-09-03T13:40:38.242Z,37
2022-09-03T13:41:39.035Z,37
2022-09-03T13:42:39.419Z,37
2022-09-03T13:43:39.816Z,37
2022-09-03T13:44:40.176Z,38
2022-09-03T13:45:40.592Z,38
2022-09-03T13:46:41.409Z,38
2022-09-03T13:47:41.797Z,38
2022-09-03T13:48:43.230Z,38
2022-09-03T13:49:43.983Z,36
2022-09-03T13:50:44.337Z,36
2022-09-03T13:51:45.064Z,36
2022-09-03T13:52:45.464Z,36
2022-09-03T13:53:45.864Z,36
2022-09-03T13:54:49.277Z,36
2022-09-03T13:55:50.172Z,36
2022-09-03T13:56:50.940Z,36
2022-09-03T13:57:51.306Z,36
2022-09-03T13:58:51.708Z,36
2022-09-03T13:59:52.076Z,36
2022-09-03T14:00:52.501Z,36
2022-09-03T14:01:53.347Z,36
2022-09-03T14:02:53.768Z,36
2022-09-03T14:03:54.157Z,36
2022-09-03T14:04:54.975Z,37
2022-09-03T14:05:55.377Z,37
2022-09-03T14:06:56.149Z,37
2022-09-03T14:07:56.535Z,37
2022-09-03T14:08:58.907Z,37
2022-09-03T14:09:59.584Z,37
2022-09-03T14:10:59.961Z,37
2022-09-03T14:12:00.754Z,37
2022-09-03T14:13:01.135Z,37
2022-09-03T14:14:01.494Z,37
2022-09-03T14:15:01.899Z,37
2022-09-03T14:16:02.305Z,37
2022-09-03T14:17:03.104Z,37
2022-09-03T14:18:03.507Z,37
2022-09-03T14:19:03.876Z,37
2022-09-03T14:20:04.807Z,37
2022-09-03T14:21:05.279Z,37
2022-09-03T14:22:06.075Z,37
2022-09-03T14:23:06.497Z,37
2022-09-03T14:24:06.862Z,37
2022-09-03T14:25:07.241Z,37
2022-09-03T14:26:07.630Z,37
2022-09-03T14:27:08.506Z,37
2022-09-03T14:28:08.870Z,37
2022-09-03T14:29:09.268Z,37